createdAt,value
2023-05-18T00:01:47.522Z,9.50
2023-05-18T00:05:19.116Z,9.50
2023-05-18T00:08:06.689Z,9.50
2023-05-18T00:11:41.871Z,9.40
2023-05-18T00:14:42.267Z,9.40
2023-05-18T00:17:28.958Z,9.30
2023-05-18T00:20:33.532Z,9.30
2023-05-18T00:23:27.492Z,9.30
2023-05-18T00:26:17.738Z,9.50
2023-05-18T00:29:35.578Z,9.40
2023-05-18T00:32:41.791Z,9.30
2023-05-18T00:35:48.350Z,9.30
2023-05-18T00:38:38.118Z,9.30
2023-05-18T00:41:28.186Z,9.30
2023-05-18T00:44:35.227Z,9.20
2023-05-18T00:47:26.824Z,9.20
2023-05-18T00:53:55.555Z,9.20
2023-05-18T00:56:38.896Z,9.20
2023-05-18T00:59:27.928Z,9.20
2023-05-18T01:02:53.081Z,9.20
2023-05-18T01:05:30.653Z,9.10
2023-05-18T01:11:41.621Z,9.10
2023-05-18T01:14:20.045Z,9.10
2023-05-18T01:17:05.318Z,9.00
2023-05-18T01:20:25.784Z,9.00
2023-05-18T01:23:30.750Z,9.00
2023-05-18T01:29:57.888Z,8.90
2023-05-18T01:33:03.715Z,8.90
2023-05-18T01:35:53.611Z,8.80
2023-05-18T01:38:47.249Z,8.70
2023-05-18T01:41:40.928Z,8.70
2023-05-18T01:44:37.154Z,8.70
2023-05-18T01:47:27.665Z,8.70
2023-05-18T01:50:27.999Z,8.70
2023-05-18T01:56:34.231Z,8.60
2023-05-18T01:59:23.594Z,8.70
2023-05-18T02:02:08.035Z,8.70
2023-05-18T02:04:47.948Z,8.60
2023-05-18T02:10:54.362Z,8.60
2023-05-18T02:13:40.607Z,8.50
2023-05-18T02:16:46.345Z,8.50
2023-05-18T02:19:35.584Z,8.50
2023-05-18T02:22:35.263Z,8.60
2023-05-18T02:25:29.427Z,8.50
2023-05-18T02:28:25.456Z,8.60
2023-05-18T02:31:08.087Z,8.60
2023-05-18T02:33:59.440Z,8.60
2023-05-18T02:37:08.069Z,8.70
2023-05-18T02:40:00.268Z,8.60
2023-05-18T02:42:45.756Z,8.70
2023-05-18T02:45:17.339Z,8.70
2023-05-18T02:47:52.902Z,8.70
2023-05-18T02:50:30.051Z,8.70
2023-05-18T02:55:52.668Z,8.70
2023-05-18T02:58:31.698Z,8.70
2023-05-18T03:01:12.931Z,8.70
2023-05-18T03:04:21.362Z,8.70
2023-05-18T03:07:22.095Z,8.70
2023-05-18T03:10:07.653Z,8.70
2023-05-18T03:13:15.785Z,8.70
2023-05-18T03:16:29.231Z,8.70
2023-05-18T03:19:19.941Z,8.70
2023-05-18T03:22:08.426Z,8.70
2023-05-18T03:28:33.695Z,8.60
2023-05-18T03:31:20.882Z,8.50
2023-05-18T03:34:20.149Z,8.50
2023-05-18T03:37:10.625Z,8.50
2023-05-18T03:39:55.026Z,8.60
2023-05-18T03:42:53.414Z,8.60
2023-05-18T03:45:56.385Z,8.60
2023-05-18T03:48:58.208Z,8.50
2023-05-18T03:51:55.941Z,8.60
2023-05-18T03:54:50.649Z,8.50
2023-05-18T04:08:13.847Z,8.60
2023-05-18T04:11:19.274Z,8.50
2023-05-18T04:14:17.438Z,8.50
2023-05-18T04:20:46.308Z,8.50
2023-05-18T04:23:43.219Z,8.40
2023-05-18T04:30:43.722Z,8.50
2023-05-18T04:37:16.279Z,8.50
2023-05-18T04:40:24.217Z,8.50
2023-05-18T04:47:17.650Z,8.50
2023-05-18T04:53:22.877Z,8.60
2023-05-18T04:56:49.863Z,8.60
2023-05-18T04:59:37.677Z,8.60
2023-05-18T05:03:06.844Z,8.70
2023-05-18T05:06:23.164Z,8.80
2023-05-18T05:09:09.250Z,8.80
2023-05-18T05:22:41.896Z,8.90
2023-05-18T05:33:10.614Z,9.10
2023-05-18T05:36:11.290Z,9.10
2023-05-18T05:39:27.567Z,9.10
2023-05-18T05:42:16.366Z,9.20
2023-05-18T05:45:32.008Z,9.30
2023-05-18T05:55:01.035Z,9.50
2023-05-18T05:57:58.925Z,9.60
2023-05-18T06:00:54.004Z,9.70
2023-05-18T06:07:30.479Z,9.90
2023-05-18T06:10:58.172Z,10.00
2023-05-18T06:14:39.054Z,10.10
2023-05-18T06:17:40.017Z,10.10
2023-05-18T06:27:44.408Z,10.40
2023-05-18T06:30:59.089Z,10.60
2023-05-18T06:34:46.439Z,10.80
2023-05-18T06:38:11.819Z,11.10
2023-05-18T06:41:19.135Z,11.30
2023-05-18T06:44:39.007Z,11.60
2023-05-18T06:47:42.788Z,11.70
2023-05-18T06:50:59.901Z,11.70
2023-05-18T06:54:06.649Z,11.70
2023-05-18T06:56:58.212Z,11.90
2023-05-18T07:00:06.140Z,12.10
2023-05-18T07:07:25.000Z,12.20
2023-05-18T07:10:27.017Z,12.30
2023-05-18T07:13:29.297Z,12.40
2023-05-18T07:23:15.450Z,12.40
2023-05-18T07:26:24.508Z,12.30
2023-05-18T07:29:52.579Z,12.40
2023-05-18T07:36:01.109Z,12.50
2023-05-18T07:39:04.728Z,12.70
2023-05-18T07:43:10.131Z,12.70
2023-05-18T07:46:09.040Z,12.80
2023-05-18T07:49:25.284Z,12.90
2023-05-18T07:52:39.346Z,13.00
2023-05-18T07:56:09.083Z,13.00
2023-05-18T07:59:13.196Z,13.00
2023-05-18T08:02:26.007Z,13.00
2023-05-18T08:09:09.414Z,13.20
2023-05-18T08:11:54.971Z,13.20
2023-05-18T08:18:52.857Z,13.30
2023-05-18T08:21:41.750Z,13.40
2023-05-18T08:28:03.292Z,13.60
2023-05-18T08:30:59.123Z,13.70
2023-05-18T08:37:55.166Z,13.90
2023-05-18T08:41:16.155Z,13.90
2023-05-18T08:44:48.675Z,13.90
2023-05-18T08:48:02.683Z,14.00
2023-05-18T08:51:17.459Z,14.00
2023-05-18T09:02:01.439Z,14.20
2023-05-18T09:05:14.809Z,14.20
2023-05-18T09:08:20.325Z,14.30
2023-05-18T09:11:17.514Z,14.30
2023-05-18T09:14:24.097Z,14.50
2023-05-18T09:17:25.892Z,14.50
2023-05-18T09:20:42.716Z,14.60
2023-05-18T09:23:52.271Z,14.70
2023-05-18T09:26:46.094Z,14.80
2023-05-18T09:33:02.904Z,14.90
2023-05-18T09:38:55.195Z,15.00
2023-05-18T09:42:29.532Z,15.10
2023-05-18T09:45:41.008Z,15.20
2023-05-18T09:48:43.941Z,15.20
2023-05-18T09:51:59.171Z,15.20
2023-05-18T10:01:32.106Z,15.30
2023-05-18T10:11:03.658Z,15.60
2023-05-18T10:13:48.859Z,15.60
2023-05-18T10:17:03.596Z,15.70
2023-05-18T10:19:59.319Z,15.70
2023-05-18T10:23:29.294Z,15.70
2023-05-18T10:26:28.443Z,15.70
2023-05-18T10:29:27.609Z,15.80
2023-05-18T10:32:29.327Z,15.80
2023-05-18T10:35:35.372Z,15.90
2023-05-18T10:38:44.569Z,15.90
2023-05-18T10:41:39.362Z,16.00
2023-05-18T10:44:46.764Z,16.10
2023-05-18T10:47:42.759Z,16.10
2023-05-18T10:50:51.246Z,15.90
2023-05-18T10:53:43.931Z,16.00
2023-05-18T10:56:41.368Z,16.10
2023-05-18T11:00:08.486Z,16.10
2023-05-18T11:03:46.840Z,16.10
2023-05-18T11:07:09.965Z,16.20
2023-05-18T11:14:25.262Z,16.40
2023-05-18T11:17:41.551Z,16.40
2023-05-18T11:20:37.787Z,16.50
2023-05-18T11:23:56.220Z,16.50
2023-05-18T11:27:40.481Z,16.50
2023-05-18T11:30:47.390Z,16.60
2023-05-18T11:33:30.275Z,16.60
2023-05-18T11:36:04.003Z,16.70
2023-05-18T11:38:53.044Z,16.80
2023-05-18T11:41:35.690Z,16.70
2023-05-18T11:44:18.594Z,16.70
2023-05-18T11:47:06.987Z,16.90
2023-05-18T11:49:51.810Z,16.90
2023-05-18T11:52:21.791Z,17.00
2023-05-18T11:54:53.033Z,17.10
2023-05-18T11:57:24.934Z,17.10
2023-05-18T11:59:57.507Z,17.20
2023-05-18T12:02:27.290Z,17.20
2023-05-18T12:05:00.593Z,17.20
2023-05-18T12:07:38.509Z,17.30
2023-05-18T12:10:09.854Z,17.40
2023-05-18T12:12:38.455Z,17.30
2023-05-18T12:15:09.242Z,17.30
2023-05-18T12:20:49.801Z,17.40
2023-05-18T12:23:18.581Z,17.40
2023-05-18T12:25:47.353Z,17.40
2023-05-18T12:28:17.209Z,17.40
2023-05-18T12:30:45.690Z,17.40
2023-05-18T12:33:30.594Z,17.40
2023-05-18T12:36:01.294Z,17.50
2023-05-18T12:38:32.888Z,17.50
2023-05-18T12:41:01.465Z,17.50
2023-05-18T12:43:35.266Z,17.40
2023-05-18T12:46:06.189Z,17.40
2023-05-18T12:48:38.251Z,17.50
2023-05-18T12:51:18.488Z,17.50
2023-05-18T12:53:46.792Z,17.50
2023-05-18T12:56:14.933Z,17.50
2023-05-18T12:58:55.168Z,17.50
2023-05-18T13:01:27.952Z,17.50
2023-05-18T13:04:00.516Z,17.40
2023-05-18T13:06:30.705Z,17.50
2023-05-18T13:09:00.787Z,17.50
2023-05-18T13:11:31.235Z,17.60
2023-05-18T13:14:06.187Z,17.70
2023-05-18T13:16:49.770Z,17.70
2023-05-18T13:19:20.160Z,17.70
2023-05-18T13:21:57.240Z,17.60
2023-05-18T13:24:39.150Z,17.50
2023-05-18T13:27:30.091Z,17.60
2023-05-18T13:30:01.598Z,17.50
2023-05-18T13:32:29.799Z,17.50
2023-05-18T13:34:57.929Z,17.50
2023-05-18T13:37:27.528Z,17.50
2023-05-18T13:39:55.745Z,17.50
2023-05-18T13:42:23.830Z,17.60
2023-05-18T13:44:52.018Z,17.70
2023-05-18T13:47:20.840Z,17.70
2023-05-18T13:49:49.166Z,17.70
2023-05-18T13:52:17.331Z,17.70
2023-05-18T13:54:46.918Z,17.80
2023-05-18T13:57:14.974Z,17.80
2023-05-18T13:59:43.074Z,17.80
2023-05-18T14:02:11.264Z,17.80
2023-05-18T14:04:39.455Z,17.90
2023-05-18T14:07:09.524Z,17.90
2023-05-18T14:09:37.863Z,18.00
2023-05-18T14:12:10.387Z,18.00
2023-05-18T14:14:38.584Z,18.00
2023-05-18T14:17:08.069Z,17.90
2023-05-18T14:19:38.146Z,17.90
2023-05-18T14:22:06.787Z,17.90
2023-05-18T14:24:34.941Z,17.80
2023-05-18T14:27:03.111Z,17.80
2023-05-18T14:29:35.749Z,17.80
2023-05-18T14:32:04.275Z,17.90
2023-05-18T14:34:32.438Z,17.80
2023-05-18T14:37:00.579Z,17.90
2023-05-18T14:39:28.677Z,17.90
2023-05-18T14:41:56.842Z,17.90
2023-05-18T14:44:25.041Z,17.80
2023-05-18T14:46:55.246Z,17.80
2023-05-18T14:49:23.368Z,17.80
2023-05-18T14:51:51.510Z,17.80
2023-05-18T14:54:20.460Z,17.70
2023-05-18T14:56:48.594Z,17.70
2023-05-18T14:59:16.806Z,17.70
2023-05-18T15:01:44.967Z,17.70
2023-05-18T15:04:15.402Z,17.60
2023-05-18T15:06:43.657Z,17.60
2023-05-18T15:09:12.219Z,17.60
2023-05-18T15:11:40.345Z,17.50
2023-05-18T15:14:08.483Z,17.50
2023-05-18T15:16:37.249Z,17.40
2023-05-18T15:19:05.786Z,17.40
2023-05-18T15:21:35.656Z,17.40
2023-05-18T15:24:18.394Z,17.40
2023-05-18T15:27:28.295Z,17.40
2023-05-18T15:30:20.171Z,17.40
2023-05-18T15:33:15.319Z,17.40
2023-05-18T15:36:35.043Z,17.30
2023-05-18T15:43:18.582Z,17.40
2023-05-18T15:46:00.441Z,17.30
2023-05-18T15:48:52.435Z,17.20
2023-05-18T15:51:43.050Z,17.10
2023-05-18T15:55:03.150Z,16.90
2023-05-18T15:58:10.022Z,17.00
2023-05-18T16:01:23.539Z,17.00
2023-05-18T16:04:14.356Z,16.80
2023-05-18T16:07:16.041Z,16.80
2023-05-18T16:10:04.478Z,16.80
2023-05-18T16:12:36.874Z,16.80
2023-05-18T16:15:16.879Z,16.70
2023-05-18T16:18:11.837Z,16.60
2023-05-18T16:24:36.399Z,16.50
2023-05-18T16:30:47.060Z,16.50
2023-05-18T16:33:29.517Z,16.50
2023-05-18T16:36:17.600Z,16.40
2023-05-18T16:42:30.175Z,16.50
2023-05-18T16:48:27.505Z,16.40
2023-05-18T16:54:23.371Z,16.30
2023-05-18T16:57:14.422Z,16.30
2023-05-18T17:00:03.972Z,16.40
2023-05-18T17:02:58.714Z,16.40
2023-05-18T17:05:43.550Z,16.40
2023-05-18T17:08:28.635Z,16.30
2023-05-18T17:11:22.490Z,16.40
2023-05-18T17:14:14.787Z,16.40
2023-05-18T17:17:05.704Z,16.40
2023-05-18T17:20:07.996Z,16.40
2023-05-18T17:22:57.003Z,16.30
2023-05-18T17:25:48.630Z,16.40
2023-05-18T17:28:35.068Z,16.30
2023-05-18T17:31:12.046Z,16.30
2023-05-18T17:34:03.457Z,16.30
2023-05-18T17:36:42.176Z,16.30
2023-05-18T17:39:25.568Z,16.30
2023-05-18T17:42:11.792Z,16.30
2023-05-18T17:45:02.449Z,16.30
2023-05-18T17:47:49.421Z,16.30
2023-05-18T17:50:28.960Z,16.20
2023-05-18T17:53:07.846Z,16.20
2023-05-18T17:55:58.263Z,16.20
2023-05-18T17:58:26.808Z,16.10
2023-05-18T18:00:55.272Z,16.20
2023-05-18T18:03:23.501Z,16.30
2023-05-18T18:05:51.754Z,16.30
2023-05-18T18:08:20.726Z,16.30
2023-05-18T18:10:54.925Z,16.20
2023-05-18T18:13:27.103Z,16.20
2023-05-18T18:15:58.125Z,16.20
2023-05-18T18:18:26.570Z,16.20
2023-05-18T18:20:57.153Z,16.20
2023-05-18T18:23:25.567Z,16.10
2023-05-18T18:25:58.469Z,16.10
2023-05-18T18:28:33.109Z,16.00
2023-05-18T18:31:02.279Z,16.00
2023-05-18T18:33:34.719Z,16.00
2023-05-18T18:36:07.451Z,16.00
2023-05-18T18:38:38.872Z,16.00
2023-05-18T18:41:11.761Z,16.00
2023-05-18T18:43:43.281Z,16.00
2023-05-18T18:46:14.956Z,16.00
2023-05-18T18:48:43.304Z,15.90
2023-05-18T18:51:18.605Z,15.90
2023-05-18T18:53:47.070Z,15.90
2023-05-18T18:56:15.174Z,15.90
2023-05-18T18:58:45.069Z,15.80
2023-05-18T19:01:13.132Z,15.80
2023-05-18T19:03:41.468Z,15.80
2023-05-18T19:06:09.689Z,15.80
2023-05-18T19:08:37.901Z,15.70
2023-05-18T19:11:06.222Z,15.70
2023-05-18T19:13:34.385Z,15.70
2023-05-18T19:16:04.139Z,15.70
2023-05-18T19:18:32.364Z,15.70
2023-05-18T19:21:01.419Z,15.70
2023-05-18T19:23:29.772Z,15.70
2023-05-18T19:25:59.596Z,15.70
2023-05-18T19:28:28.068Z,15.60
2023-05-18T19:30:57.111Z,15.60
2023-05-18T19:33:26.875Z,15.60
2023-05-18T19:35:55.983Z,15.50
2023-05-18T19:38:24.267Z,15.60
2023-05-18T19:40:52.424Z,15.50
2023-05-18T19:43:20.769Z,15.50
2023-05-18T19:45:52.606Z,15.50
2023-05-18T19:48:20.934Z,15.50
2023-05-18T19:50:52.492Z,15.50
2023-05-18T19:53:23.000Z,15.50
2023-05-18T19:55:51.343Z,15.40
2023-05-18T19:58:31.278Z,15.50
2023-05-18T20:01:09.726Z,15.50
2023-05-18T20:03:43.114Z,15.40
2023-05-18T20:06:18.166Z,15.40
2023-05-18T20:08:49.199Z,15.40
2023-05-18T20:11:25.727Z,15.30
2023-05-18T20:13:57.303Z,15.30
2023-05-18T20:16:29.704Z,15.20
2023-05-18T20:18:59.748Z,15.30
2023-05-18T20:21:29.422Z,15.20
2023-05-18T20:23:57.594Z,15.10
2023-05-18T20:26:29.238Z,15.10
2023-05-18T20:28:58.816Z,15.10
2023-05-18T20:31:33.523Z,15.10
2023-05-18T20:34:07.253Z,15.10
2023-05-18T20:36:51.935Z,15.10
2023-05-18T20:39:30.602Z,15.10
2023-05-18T20:42:23.082Z,15.00
2023-05-18T20:45:19.819Z,14.90
2023-05-18T20:48:02.615Z,14.90
2023-05-18T20:50:39.223Z,14.80
2023-05-18T20:53:28.738Z,14.70
2023-05-18T20:56:23.941Z,14.70
2023-05-18T20:59:21.848Z,14.70
2023-05-18T21:05:06.187Z,14.70
2023-05-18T21:08:01.465Z,14.70
2023-05-18T21:10:33.908Z,14.80
2023-05-18T21:13:08.345Z,14.70
2023-05-18T21:15:53.931Z,14.70
2023-05-18T21:18:25.616Z,14.70
2023-05-18T21:21:05.141Z,14.70
2023-05-18T21:23:55.055Z,14.70
2023-05-18T21:26:37.408Z,14.60
2023-05-18T21:29:22.902Z,14.70
2023-05-18T21:32:37.766Z,14.70
2023-05-18T21:35:25.764Z,14.70
2023-05-18T21:38:09.989Z,14.70
2023-05-18T21:40:52.980Z,14.60
2023-05-18T21:46:45.329Z,14.60
2023-05-18T21:49:51.308Z,14.70
2023-05-18T21:52:40.944Z,14.60
2023-05-18T21:55:23.119Z,14.60
2023-05-18T21:58:03.980Z,14.60
2023-05-18T22:00:48.549Z,14.60
2023-05-18T22:03:55.443Z,14.60
2023-05-18T22:06:33.990Z,14.60
2023-05-18T22:09:24.218Z,14.60
2023-05-18T22:12:33.800Z,14.50
2023-05-18T22:15:21.130Z,14.60
2023-05-18T22:17:54.553Z,14.50
2023-05-18T22:20:24.062Z,14.50
2023-05-18T22:22:52.323Z,14.50
2023-05-18T22:25:29.652Z,14.50
2023-05-18T22:28:36.321Z,14.40
2023-05-18T22:31:37.175Z,14.50
2023-05-18T22:34:33.883Z,14.50
2023-05-18T22:37:28.296Z,14.50
2023-05-18T22:40:14.513Z,14.50
2023-05-18T22:43:08.415Z,14.40
2023-05-18T22:45:45.898Z,14.30
2023-05-18T22:48:38.102Z,14.40
2023-05-18T22:51:21.155Z,14.30
2023-05-18T22:54:01.938Z,14.30
2023-05-18T22:56:33.770Z,14.30
2023-05-18T22:59:20.595Z,14.30
2023-05-18T23:02:08.188Z,14.20
2023-05-18T23:05:00.400Z,14.30
2023-05-18T23:07:39.304Z,14.30
2023-05-18T23:10:38.782Z,14.20
2023-05-18T23:13:29.164Z,14.20
2023-05-18T23:16:19.460Z,14.20
2023-05-18T23:19:22.782Z,14.20
2023-05-18T23:22:05.844Z,14.20
2023-05-18T23:24:48.632Z,14.10
2023-05-18T23:27:49.646Z,14.10
2023-05-18T23:30:36.479Z,14.10
2023-05-18T23:33:47.045Z,14.10
2023-05-18T23:36:30.054Z,14.00
2023-05-18T23:39:20.576Z,14.00
2023-05-18T23:42:13.993Z,14.00
2023-05-18T23:45:27.759Z,14.00
2023-05-18T23:54:45.012Z,14.00
2023-05-18T23:58:01.276Z,13.90
